Time;durP1;ratioP1;P1;durP2;ratioP2;P2;SDS_P1;SDS_P2;PMS_P1;PMS_P2;Temp;Humidity;BMP_temperature;BMP_pressure;BME280_temperature;BME280_humidity;BME280_pressure;Samples;Min_cycle;Max_cycle;Signal;HPM_P1;HPM_P2
2022/01/25 00:10:13;;;;;;;212.05;115.85;;;;;;;1.99;85.24;103377.44;5079129;28;20038;-70
2022/01/25 00:26:33;;;;;;;63.45;42.08;;;;;;;1.98;86.12;103373.94;5078068;28;20111;-69
2022/01/25 00:31:30;;;;;;;68.22;42.03;;;;;;;1.99;86.53;103377.44;5103223;28;20458;-70
2022/01/25 00:33:56;;;;;;;64.05;41.80;;;;;;;1.97;86.89;103377.34;5074707;28;20028;-70
2022/01/25 00:36:28;;;;;;;69.80;44.28;;;;;;;1.98;85.99;103389.44;5091267;28;20034;-70
2022/01/25 00:38:55;;;;;;;73.53;43.95;;;;;;;1.97;86.39;103382.50;5092411;28;20154;-69
2022/01/25 00:41:22;;;;;;;63.65;45.00;;;;;;;1.96;86.28;103380.72;5078505;28;20032;-70
2022/01/25 00:43:50;;;;;;;73.35;45.60;;;;;;;1.98;85.61;103379.09;5072191;28;20028;-70
2022/01/25 00:46:19;;;;;;;64.30;42.50;;;;;;;1.99;85.68;103385.19;5092614;28;20024;-70
2022/01/25 00:48:48;;;;;;;65.55;42.10;;;;;;;1.98;85.91;103375.63;5075098;28;20036;-69
2022/01/25 00:56:32;;;;;;;75.07;44.78;;;;;;;2.01;85.27;103374.16;5090243;28;20048;-70
2022/01/25 00:59:05;;;;;;;65.28;42.20;;;;;;;2.03;85.93;103382.91;5090852;28;20097;-70
2022/01/25 01:01:31;;;;;;;62.30;41.60;;;;;;;2.00;86.01;103366.31;5091390;28;20020;-70
2022/01/25 01:03:57;;;;;;;70.57;44.35;;;;;;;1.99;85.69;103367.97;5089860;28;20387;-70
2022/01/25 01:06:23;;;;;;;68.40;44.42;;;;;;;1.98;86.06;103363.59;5090848;28;20020;-70
2022/01/25 01:08:49;;;;;;;74.97;46.40;;;;;;;2.00;84.85;103366.31;5086891;28;20012;-70
2022/01/25 01:11:22;;;;;;;67.80;41.92;;;;;;;2.00;85.42;103364.59;5086776;28;20027;-70
2022/01/25 01:14:01;;;;;;;63.38;42.38;;;;;;;2.00;85.24;103369.78;5091293;28;20119;-70
2022/01/25 01:16:48;;;;;;;68.50;44.25;;;;;;;2.00;85.49;103362.00;5072567;28;20028;-70
2022/01/25 01:48:42;;;;;;;68.13;45.95;;;;;;;1.98;86.55;103381.69;5073929;28;20058;-70
2022/01/25 01:51:17;;;;;;;73.90;47.10;;;;;;;1.99;86.75;103378.31;5074166;28;20144;-70
2022/01/25 01:53:43;;;;;;;76.22;44.30;;;;;;;1.98;86.00;103376.53;5073971;28;20032;-70
2022/01/25 01:56:09;;;;;;;73.35;44.75;;;;;;;1.99;86.15;103386.06;5071546;28;20035;-70
2022/01/25 01:58:37;;;;;;;63.00;40.00;;;;;;;1.99;86.25;103386.06;5072746;28;20435;-70
2022/01/25 02:01:06;;;;;;;65.25;41.20;;;;;;;1.98;86.67;103373.94;5089825;28;20115;-70
2022/01/25 02:03:31;;;;;;;78.53;43.83;;;;;;;1.98;86.35;103378.22;5087841;28;20042;-70
2022/01/25 02:05:59;;;;;;;74.88;42.35;;;;;;;1.97;86.54;103377.34;5071758;28;20449;-70
2022/01/25 02:08:24;;;;;;;67.57;43.70;;;;;;;1.98;86.79;103373.94;5086719;28;20047;-70
2022/01/25 02:14:40;;;;;;;61.70;40.13;;;;;;;1.98;86.16;103381.69;5087878;28;20055;-70
2022/01/25 02:23:21;;;;;;;67.78;41.78;;;;;;;1.94;86.58;103366.81;5086143;28;20114;-70
2022/01/25 02:25:49;;;;;;;69.43;44.15;;;;;;;1.92;86.29;103363.22;5087777;28;20091;-70
2022/01/25 02:28:16;;;;;;;71.45;42.85;;;;;;;1.90;86.80;103365.69;5073471;28;20047;-70
2022/01/25 02:30:42;;;;;;;70.03;45.67;;;;;;;1.87;86.35;103360.34;5088145;28;20482;-70
2022/01/25 02:33:08;;;;;;;73.07;47.50;;;;;;;1.86;85.82;103353.34;5089371;28;20455;-70
2022/01/25 02:35:34;;;;;;;71.80;46.35;;;;;;;1.85;86.25;103350.69;5071889;28;20031;-70
2022/01/25 02:38:00;;;;;;;77.25;48.92;;;;;;;1.85;86.00;103355.84;5070924;28;20059;-69
2022/01/25 02:40:25;;;;;;;68.78;46.80;;;;;;;1.86;86.63;103352.47;5072471;28;20055;-70
2022/01/25 02:42:52;;;;;;;58.88;37.65;;;;;;;1.87;86.70;103351.69;5054101;28;20024;-70
2022/01/25 02:45:18;;;;;;;54.63;34.97;;;;;;;1.87;87.26;103349.09;5057893;28;20031;-70
2022/01/25 02:50:28;;;;;;;64.97;41.38;;;;;;;1.87;86.94;103349.97;5089542;28;20116;-70
2022/01/25 02:52:54;;;;;;;64.40;41.20;;;;;;;1.89;87.40;103347.50;5069368;28;20499;-70
2022/01/25 02:55:20;;;;;;;62.63;39.55;;;;;;;1.91;87.30;103345.88;5086734;28;20479;-70
2022/01/25 02:57:46;;;;;;;71.38;44.60;;;;;;;1.89;86.60;103350.09;5071173;28;20067;-70
2022/01/25 03:00:13;;;;;;;78.55;47.97;;;;;;;1.89;85.96;103347.50;5086708;28;20031;-70
2022/01/25 03:02:38;;;;;;;66.28;43.58;;;;;;;1.88;86.79;103348.28;5082581;28;20400;-70
2022/01/25 03:05:05;;;;;;;64.55;41.60;;;;;;;1.90;86.66;103346.72;5070135;28;20028;-69
2022/01/25 03:07:32;;;;;;;59.55;39.40;;;;;;;1.89;87.01;103347.50;5088165;28;20035;-69
2022/01/25 03:09:59;;;;;;;63.85;40.35;;;;;;;1.90;87.14;103346.72;5087664;28;20035;-69
2022/01/25 03:12:36;;;;;;;80.65;50.88;;;;;;;1.90;86.49;103349.28;5064921;28;20122;-70
2022/01/25 03:15:24;;;;;;;75.78;46.30;;;;;;;1.90;85.99;103344.13;5073496;28;20028;-70
2022/01/25 03:17:55;;;;;;;76.25;46.30;;;;;;;1.89;86.53;103343.22;5087196;28;20036;-70
2022/01/25 03:20:34;;;;;;;77.32;46.15;;;;;;;1.89;85.97;103337.16;5056235;28;20038;-71
2022/01/25 03:23:05;;;;;;;78.22;46.30;;;;;;;1.88;86.26;103325.00;5071466;28;20043;-70
2022/01/25 03:25:31;;;;;;;72.25;47.30;;;;;;;1.85;86.88;103324.81;5069637;28;20051;-70
2022/01/25 03:27:57;;;;;;;73.85;46.28;;;;;;;1.83;86.21;103316.97;5057036;28;20476;-69
2022/01/25 03:30:24;;;;;;;77.57;47.10;;;;;;;1.84;86.62;103320.44;5054393;28;20036;-71
2022/01/25 03:32:49;;;;;;;73.93;44.13;;;;;;;1.84;86.95;103313.59;5058982;28;20032;-70
2022/01/25 03:35:15;;;;;;;69.82;45.95;;;;;;;1.86;87.04;103305.94;5058567;28;20066;-70
2022/01/25 03:37:40;;;;;;;65.57;42.08;;;;;;;1.88;87.32;103315.59;5056912;28;20040;-70
2022/01/25 03:40:10;;;;;;;66.72;42.80;;;;;;;1.88;87.51;103318.16;5066439;28;20028;-70
2022/01/25 03:42:37;;;;;;;64.50;40.38;;;;;;;1.87;87.53;103324.13;5081972;28;20044;-70
2022/01/25 03:45:08;;;;;;;70.85;41.88;;;;;;;1.88;87.27;103327.59;5070103;28;20023;-70
2022/01/25 03:47:56;;;;;;;69.63;42.42;;;;;;;1.89;87.20;103321.63;5107066;28;20419;-70
2022/01/25 03:50:19;;;;;;;69.50;42.80;;;;;;;1.88;87.00;103320.75;5073093;28;20036;-70
2022/01/25 03:52:47;;;;;;;74.90;46.83;;;;;;;1.88;87.09;103309.50;5066650;28;20110;-70
2022/01/25 03:55:14;;;;;;;70.68;45.97;;;;;;;1.88;86.93;103322.44;5087315;28;20363;-70
2022/01/25 03:57:40;;;;;;;68.15;41.72;;;;;;;1.89;87.43;103330.28;5068858;28;20040;-70
2022/01/25 04:00:07;;;;;;;76.78;45.50;;;;;;;1.88;87.11;103323.34;5068387;28;20437;-70
2022/01/25 04:02:34;;;;;;;67.85;45.13;;;;;;;1.90;87.02;103323.44;5051020;28;20038;-70
2022/01/25 04:05:01;;;;;;;76.22;45.17;;;;;;;1.90;86.98;103326.03;5070249;28;20028;-70
2022/01/25 04:07:43;;;;;;;75.45;47.00;;;;;;;1.91;87.53;103335.53;5064496;28;20043;-71
2022/01/25 04:10:09;;;;;;;69.85;43.65;;;;;;;1.91;86.94;103332.97;5067310;28;20029;-70
2022/01/25 04:12:35;;;;;;;77.88;47.63;;;;;;;1.95;87.40;103332.38;5084048;28;20024;-70
2022/01/25 04:15:02;;;;;;;74.05;47.53;;;;;;;1.93;86.76;103333.97;5090162;28;20027;-70
2022/01/25 04:17:29;;;;;;;73.70;48.17;;;;;;;1.93;87.29;103328.81;5070539;28;20591;-70
2022/01/25 04:25:36;;;;;;;74.22;46.85;;;;;;;1.95;87.79;103329.78;5088091;28;20043;-70
2022/01/25 04:28:02;;;;;;;75.40;46.00;;;;;;;1.95;87.06;103326.31;5074709;28;20023;-70
2022/01/25 04:30:27;;;;;;;75.80;45.65;;;;;;;1.94;87.60;103325.44;5054028;28;20031;-70
2022/01/25 04:33:05;;;;;;;74.35;46.47;;;;;;;1.97;86.90;103325.63;5088997;28;20053;-70
2022/01/25 04:54:28;;;;;;;75.55;45.10;;;;;;;1.90;86.90;103313.97;5089533;28;20035;-70
2022/01/25 04:57:11;;;;;;;76.10;44.50;;;;;;;1.93;87.62;103313.28;5090179;28;20158;-70
2022/01/25 04:59:49;;;;;;;65.45;40.88;;;;;;;1.93;87.54;103315.88;5075846;28;20122;-70
2022/01/25 05:05:16;;;;;;;71.72;45.00;;;;;;;1.93;87.40;103317.56;5058351;28;20032;-69
2022/01/25 05:10:14;;;;;;;78.82;50.08;;;;;;;1.92;87.66;103310.59;5090282;28;20042;-70
2022/01/25 05:12:52;;;;;;;77.30;47.58;;;;;;;1.92;87.06;103305.44;5057455;28;20111;-70
2022/01/25 05:15:37;;;;;;;87.57;49.00;;;;;;;1.91;86.98;103304.50;5074890;28;20020;-70
2022/01/25 05:18:14;;;;;;;74.50;44.88;;;;;;;1.94;87.35;103311.59;5073470;28;20115;-70
2022/01/25 05:23:26;;;;;;;71.80;45.75;;;;;;;1.95;87.30;103306.50;5088650;28;20365;-70
2022/01/25 05:25:52;;;;;;;79.25;46.90;;;;;;;1.93;87.10;103308.13;5096099;27;20396;-70
2022/01/25 05:28:17;;;;;;;78.85;48.65;;;;;;;1.97;87.05;103310.09;5075183;28;20032;-70
2022/01/25 05:30:43;;;;;;;76.50;46.33;;;;;;;1.96;86.72;103308.31;5089911;28;20915;-70
2022/01/25 05:33:08;;;;;;;75.45;48.72;;;;;;;1.94;86.88;103306.41;5074699;28;20020;-70
2022/01/25 05:35:34;;;;;;;76.50;44.63;;;;;;;1.95;86.59;103309.09;5055030;28;20379;-70
2022/01/25 05:38:00;;;;;;;81.55;49.78;;;;;;;1.92;86.64;103308.91;5089843;28;20476;-69
2022/01/25 05:40:46;;;;;;;88.97;52.20;;;;;;;1.91;87.34;103314.84;5089142;28;20081;-70
2022/01/25 05:45:57;;;;;;;76.47;46.42;;;;;;;1.90;87.39;103310.50;5089314;28;20020;-70
2022/01/25 05:48:25;;;;;;;68.50;40.50;;;;;;;1.91;87.79;103304.50;5087152;28;20024;-70
2022/01/25 05:50:51;;;;;;;72.00;44.75;;;;;;;1.89;87.81;103312.19;5066227;28;21840;-70
2022/01/25 05:53:17;;;;;;;72.28;45.33;;;;;;;1.90;87.80;103307.91;5065884;28;20032;-70
2022/01/25 05:55:43;;;;;;;74.97;47.28;;;;;;;1.94;88.08;103311.59;5094804;28;20096;-70
2022/01/25 05:58:11;;;;;;;74.82;45.92;;;;;;;1.94;87.85;103309.00;5058831;28;20043;-70
2022/01/25 06:00:36;;;;;;;75.72;46.78;;;;;;;1.92;88.06;103305.44;5090907;28;20028;-70
2022/01/25 06:03:04;;;;;;;76.95;47.08;;;;;;;1.92;87.70;103311.47;5060634;28;20047;-70
2022/01/25 06:05:30;;;;;;;69.75;42.67;;;;;;;1.95;88.53;103310.78;5078669;28;20024;-70
2022/01/25 06:07:58;;;;;;;75.78;46.90;;;;;;;1.92;87.93;103306.31;5074296;28;20105;-69
2022/01/25 06:10:24;;;;;;;78.85;47.97;;;;;;;1.91;87.68;103299.34;5069990;28;20099;-69
2022/01/25 06:12:49;;;;;;;72.07;45.15;;;;;;;1.92;87.92;103302.84;5070168;28;20058;-69
2022/01/25 06:15:17;;;;;;;87.10;52.08;;;;;;;1.91;87.68;103299.34;5069543;28;20038;-70
2022/01/25 06:17:42;;;;;;;245.43;138.27;;;;;;;1.92;87.77;103301.13;5069289;28;20121;-69
2022/01/25 06:20:09;;;;;;;163.85;88.82;;;;;;;1.94;87.49;103302.16;5059511;28;20044;-70
2022/01/25 06:22:37;;;;;;;107.20;59.85;;;;;;;1.95;87.59;103300.44;5087477;28;20027;-70
2022/01/25 06:25:07;;;;;;;81.22;48.65;;;;;;;1.96;88.06;103308.31;5071223;28;20472;-70
2022/01/25 06:27:33;;;;;;;77.15;48.85;;;;;;;1.96;87.97;103303.13;5063546;28;20035;-72
2022/01/25 06:30:01;;;;;;;87.63;50.90;;;;;;;1.96;87.32;103305.72;5059451;28;20035;-70
2022/01/25 06:32:26;;;;;;;73.75;45.95;;;;;;;1.96;87.64;103300.53;5107970;28;20024;-70
2022/01/25 06:34:54;;;;;;;76.32;47.28;;;;;;;1.95;87.63;103303.91;5090930;28;20039;-70
2022/01/25 06:37:19;;;;;;;81.00;49.25;;;;;;;1.93;88.11;103295.19;5072697;28;20365;-70
2022/01/25 06:39:46;;;;;;;90.00;54.67;;;;;;;1.94;87.49;103296.06;5060698;28;20039;-70
2022/01/25 06:42:11;;;;;;;100.07;57.05;;;;;;;1.92;87.53;103306.31;5078547;28;20062;-70
2022/01/25 06:44:39;;;;;;;96.10;55.63;;;;;;;1.92;88.05;103301.13;5083365;28;20067;-70
2022/01/25 06:47:05;;;;;;;95.35;51.38;;;;;;;1.92;88.11;103303.72;5065758;28;20036;-70
2022/01/25 06:49:33;;;;;;;89.70;51.63;;;;;;;1.94;88.33;103303.81;5089927;28;20031;-70
2022/01/25 06:52:01;;;;;;;97.03;55.75;;;;;;;1.95;87.84;103303.91;5093767;28;20123;-70
2022/01/25 06:54:26;;;;;;;86.30;53.28;;;;;;;1.94;87.49;103307.31;5077060;28;20038;-69
2022/01/25 06:56:52;;;;;;;82.20;51.50;;;;;;;1.95;87.44;103309.09;5050415;28;20036;-70
2022/01/25 06:59:17;;;;;;;87.97;54.47;;;;;;;1.97;87.91;103320.44;5086064;28;20039;-70
2022/01/25 07:01:43;;;;;;;88.00;55.40;;;;;;;1.97;87.81;103315.28;5071728;28;20036;-70
2022/01/25 07:04:08;;;;;;;89.80;51.33;;;;;;;1.98;88.06;103316.16;5109361;28;20106;-70
2022/01/25 07:06:34;;;;;;;88.05;54.35;;;;;;;1.98;87.93;103322.22;5092108;28;20463;-72
2022/01/25 07:09:03;;;;;;;89.47;52.92;;;;;;;1.97;87.91;103317.84;5065067;28;20047;-70
2022/01/25 07:11:29;;;;;;;88.85;54.53;;;;;;;1.99;87.65;103318.84;5093739;28;20076;-69
2022/01/25 07:13:55;;;;;;;96.45;57.30;;;;;;;1.97;87.28;103323.03;5077840;28;20066;-70
2022/01/25 07:16:25;;;;;;;92.80;53.63;;;;;;;1.98;87.15;103318.75;5072245;28;20032;-70
2022/01/25 07:18:51;;;;;;;93.63;57.80;;;;;;;1.97;85.01;103324.69;5072326;28;20407;-70
2022/01/25 07:21:16;;;;;;;91.55;53.55;;;;;;;1.97;85.41;103325.63;5076841;28;20479;-70
2022/01/25 07:23:42;;;;;;;86.15;50.17;;;;;;;1.99;86.17;103324.00;5094749;28;20027;-70
2022/01/25 07:26:10;;;;;;;83.85;51.92;;;;;;;2.01;86.19;103324.09;5077167;28;20039;-69
2022/01/25 07:28:36;;;;;;;87.15;51.22;;;;;;;2.00;86.74;103330.97;5094851;28;20046;-70
2022/01/25 07:31:02;;;;;;;92.53;56.00;;;;;;;2.00;85.43;103330.09;5077130;28;20035;-70
2022/01/25 07:33:28;;;;;;;84.35;52.72;;;;;;;2.00;85.91;103325.81;5094939;28;20031;-70
2022/01/25 07:35:53;;;;;;;86.00;55.03;;;;;;;2.00;86.12;103325.81;5094415;28;20027;-70
2022/01/25 07:38:21;;;;;;;86.57;55.75;;;;;;;2.00;85.43;103325.81;5057206;28;20036;-70
2022/01/25 07:40:47;;;;;;;81.35;49.50;;;;;;;2.01;86.65;103332.78;5072955;28;20039;-70
2022/01/25 07:43:12;;;;;;;79.10;48.47;;;;;;;2.02;87.08;103334.53;5075131;28;20023;-70
2022/01/25 07:45:38;;;;;;;91.57;51.88;;;;;;;2.01;85.88;103327.59;5061000;28;20522;-70
2022/01/25 07:48:09;;;;;;;91.15;50.42;;;;;;;2.04;86.58;103321.72;5090594;28;20383;-70
2022/01/25 07:50:35;;;;;;;;;;;;;;;2.12;86.49;103332.56;5076237;28;20031;-69
2022/01/25 07:53:00;;;;;;;73.70;46.95;;;;;;;2.07;86.19;103322.81;5083724;28;19919;-69
2022/01/25 07:55:26;;;;;;;81.72;47.35;;;;;;;2.07;85.71;103320.22;5069609;28;20031;-70
2022/01/25 07:57:51;;;;;;;79.95;50.13;;;;;;;2.10;86.13;103323.78;5071950;28;20089;-70
2022/01/25 08:00:17;;;;;;;81.35;50.95;;;;;;;2.10;86.35;103321.19;5077532;28;20028;-70
2022/01/25 08:02:46;;;;;;;87.43;52.05;;;;;;;2.12;86.42;103322.22;5093574;28;20031;-70
2022/01/25 08:05:13;;;;;;;76.88;48.35;;;;;;;2.14;86.86;103328.34;5093295;28;20027;-70
2022/01/25 08:07:39;;;;;;;81.00;48.08;;;;;;;2.13;86.76;103324.00;5093402;28;20036;-70
2022/01/25 08:10:05;;;;;;;82.97;48.58;;;;;;;2.15;86.91;103328.44;5076844;28;20031;-70
2022/01/25 08:12:30;;;;;;;79.80;48.90;;;;;;;2.17;86.95;103325.97;5074198;28;20545;-70
2022/01/25 08:14:58;;;;;;;83.38;51.00;;;;;;;2.16;84.65;103331.97;5073923;28;20028;-70
2022/01/25 08:17:26;;;;;;;79.38;50.40;;;;;;;2.17;85.57;103336.31;5057565;28;20127;-69
2022/01/25 08:19:52;;;;;;;80.90;51.60;;;;;;;2.19;86.12;103335.63;5068485;28;20028;-70
2022/01/25 08:22:18;;;;;;;95.60;57.70;;;;;;;2.17;83.20;103328.53;5083493;28;20089;-70
2022/01/25 08:24:45;;;;;;;92.03;54.40;;;;;;;2.19;83.89;103332.16;5060244;28;20038;-70
2022/01/25 08:27:11;;;;;;;79.85;49.67;;;;;;;2.22;84.80;103332.34;5069260;28;20032;-70
2022/01/25 08:29:39;;;;;;;89.72;52.83;;;;;;;2.23;85.28;103329.84;5093804;28;20024;-69
2022/01/25 08:32:07;;;;;;;92.57;53.33;;;;;;;2.25;84.61;103329.94;5077010;28;20490;-70
2022/01/25 08:34:33;;;;;;;91.60;55.95;;;;;;;2.26;84.57;103334.31;5094132;28;20024;-70
2022/01/25 08:36:59;;;;;;;87.80;55.83;;;;;;;2.30;84.62;103340.56;5092348;28;20035;-70
2022/01/25 08:39:26;;;;;;;94.72;54.78;;;;;;;2.30;83.88;103335.38;5071856;28;20534;-70
2022/01/25 08:41:52;;;;;;;91.20;57.40;;;;;;;2.31;83.05;103348.41;5076395;28;20027;-70
2022/01/25 08:44:18;;;;;;;87.45;55.42;;;;;;;2.32;83.67;103333.81;5077298;28;20027;-69
2022/01/25 08:46:46;;;;;;;86.88;57.03;;;;;;;2.33;83.56;103343.34;5065939;28;20035;-70
2022/01/25 08:49:12;;;;;;;89.88;56.97;;;;;;;2.35;81.98;103339.16;5089972;28;20020;-70
2022/01/25 08:51:37;;;;;;;93.20;58.33;;;;;;;2.34;81.27;103342.53;5084248;28;20419;-70
2022/01/25 08:54:03;;;;;;;93.07;59.22;;;;;;;2.35;81.03;103341.75;5076889;28;20391;-70
2022/01/25 08:56:29;;;;;;;101.05;60.85;;;;;;;2.35;80.24;103345.22;5093337;28;20030;-70
2022/01/25 08:58:55;;;;;;;101.43;59.03;;;;;;;2.37;80.63;103346.22;5057459;28;20039;-70
2022/01/25 09:01:20;;;;;;;91.95;56.38;;;;;;;2.39;81.30;103343.75;5078369;28;20035;-70
2022/01/25 09:03:46;;;;;;;97.00;56.03;;;;;;;2.42;82.36;103349.09;5080876;28;20119;-70
2022/01/25 09:06:12;;;;;;;88.93;57.33;;;;;;;2.43;81.67;103343.13;5063208;28;20595;-70
2022/01/25 09:08:38;;;;;;;95.15;58.20;;;;;;;2.45;81.22;103349.28;5096918;28;20034;-70
2022/01/25 09:11:05;;;;;;;89.68;56.15;;;;;;;2.47;82.05;103355.47;5094655;28;20046;-70
2022/01/25 09:13:31;;;;;;;95.72;54.78;;;;;;;2.48;81.69;103357.22;5108656;28;20038;-70
2022/01/25 09:15:57;;;;;;;86.18;54.38;;;;;;;2.50;80.88;103355.66;5079610;28;20028;-70
2022/01/25 09:18:23;;;;;;;95.88;58.58;;;;;;;2.52;80.06;103360.91;5097099;28;20557;-70
2022/01/25 09:20:48;;;;;;;94.50;60.90;;;;;;;2.52;80.91;103353.16;5096535;28;20078;-70
2022/01/25 09:23:19;;;;;;;95.97;59.60;;;;;;;2.53;80.15;103357.50;5096430;28;20095;-70
2022/01/25 09:25:48;;;;;;;94.68;58.90;;;;;;;2.55;81.11;103354.22;5096574;28;20108;-70
2022/01/25 09:28:14;;;;;;;97.05;61.53;;;;;;;2.56;81.34;103356.03;5080017;28;20064;-69
2022/01/25 09:30:40;;;;;;;98.30;61.40;;;;;;;2.58;81.30;103362.16;5096609;28;20486;-70
2022/01/25 09:33:08;;;;;;;90.28;54.60;;;;;;;2.54;78.24;103357.63;5096240;28;20034;-70
2022/01/25 09:35:34;;;;;;;92.50;60.05;;;;;;;2.55;79.31;103361.09;5080372;28;20088;-70
2022/01/25 09:38:00;;;;;;;90.85;55.65;;;;;;;2.58;79.93;103369.06;5096078;28;20036;-70
2022/01/25 09:40:25;;;;;;;97.10;58.72;;;;;;;2.59;80.00;103365.69;5095967;28;20487;-70
2022/01/25 09:42:54;;;;;;;90.20;55.22;;;;;;;2.60;79.91;103364.84;5096431;28;20032;-70
2022/01/25 09:45:20;;;;;;;91.68;56.08;;;;;;;2.59;79.22;103371.75;5080329;28;20042;-70
2022/01/25 09:47:47;;;;;;;100.50;59.00;;;;;;;2.51;76.84;103375.53;5079558;28;20027;-70
2022/01/25 09:50:13;;;;;;;116.13;73.63;;;;;;;2.51;77.58;103372.94;5096213;28;20031;-71
2022/01/25 09:52:44;;;;;;;95.53;55.35;;;;;;;2.48;77.41;103372.75;5049802;28;20063;-70
2022/01/25 09:55:13;;;;;;;123.00;75.07;;;;;;;2.48;76.63;103377.06;5060257;28;20034;-70
2022/01/25 09:57:40;;;;;;;115.38;69.30;;;;;;;2.50;78.47;103375.44;5076163;28;20044;-70
2022/01/25 10:00:07;;;;;;;92.43;57.42;;;;;;;2.54;78.50;103380.94;5075863;28;20393;-69
2022/01/25 10:02:52;;;;;;;93.28;56.80;;;;;;;2.57;79.22;103385.38;5059239;28;20056;-70
2022/01/25 10:05:31;;;;;;;94.75;58.15;;;;;;;2.59;79.10;103382.09;5079738;28;20027;-70
2022/01/25 10:08:05;;;;;;;99.75;60.38;;;;;;;2.62;78.95;103381.41;5095666;28;20441;-70
2022/01/25 10:10:34;;;;;;;103.30;60.92;;;;;;;2.65;78.92;103386.75;5094486;28;20019;-70
2022/01/25 10:13:22;;;;;;;98.93;60.97;;;;;;;2.70;79.19;103390.53;5095915;28;20027;-70
2022/01/25 10:16:13;;;;;;;94.18;58.38;;;;;;;2.73;80.05;103388.13;5094591;28;20027;-70
2022/01/25 10:18:53;;;;;;;90.90;55.80;;;;;;;2.75;79.90;103383.94;5103113;28;20036;-70
2022/01/25 10:21:21;;;;;;;89.03;55.63;;;;;;;2.74;78.54;103387.34;5077429;28;20092;-70
2022/01/25 10:24:04;;;;;;;98.88;59.80;;;;;;;2.73;78.48;103380.38;5090983;28;20495;-70
2022/01/25 10:26:32;;;;;;;94.47;59.08;;;;;;;2.72;78.87;103394.09;5107792;28;20135;-70
2022/01/25 10:28:59;;;;;;;100.25;60.92;;;;;;;2.75;78.80;103383.03;5091627;28;20031;-70
2022/01/25 10:31:41;;;;;;;96.72;59.22;;;;;;;2.81;79.18;103396.34;5089737;28;20019;-70
2022/01/25 10:34:09;;;;;;;102.70;60.30;;;;;;;2.81;77.75;103388.59;5112293;28;20085;-70
2022/01/25 10:36:42;;;;;;;102.57;62.58;;;;;;;2.85;78.27;103387.09;5112240;28;20023;-70
2022/01/25 10:39:08;;;;;;;100.47;61.03;;;;;;;2.84;78.33;103380.13;5104127;28;20031;-70
2022/01/25 10:41:34;;;;;;;97.63;59.03;;;;;;;2.83;77.48;103378.31;5061275;28;20032;-70
2022/01/25 10:44:08;;;;;;;106.78;62.17;;;;;;;2.84;77.48;103374.94;5062061;28;20024;-70
2022/01/25 10:46:34;;;;;;;105.45;62.47;;;;;;;2.87;77.87;103375.13;5089461;28;20043;-70
2022/01/25 10:49:07;;;;;;;95.20;56.28;;;;;;;2.86;77.94;103369.06;5074658;28;20559;-71
2022/01/25 10:51:42;;;;;;;103.05;60.60;;;;;;;2.90;79.00;103372.72;5112979;28;20483;-70
2022/01/25 10:54:14;;;;;;;95.07;59.97;;;;;;;2.92;77.78;103376.31;5082352;28;20028;-70
2022/01/25 10:56:50;;;;;;;105.00;61.13;;;;;;;2.91;77.17;103369.34;5088860;28;20031;-69
2022/01/25 10:59:26;;;;;;;104.25;62.40;;;;;;;2.94;77.38;103375.59;5076843;28;20032;-70
2022/01/25 11:01:58;;;;;;;100.78;60.88;;;;;;;2.94;76.98;103375.59;5070952;28;20031;-71
2022/01/25 11:04:31;;;;;;;98.07;59.65;;;;;;;2.95;77.56;103379.09;5079022;28;20471;-70
2022/01/25 11:07:04;;;;;;;105.68;60.65;;;;;;;2.92;76.06;103372.00;5076834;28;20400;-70
2022/01/25 11:09:37;;;;;;;99.82;56.38;;;;;;;2.95;77.44;103379.09;5071132;28;20126;-70
2022/01/25 11:12:05;;;;;;;96.88;59.30;;;;;;;2.97;76.86;103376.59;5072308;28;20039;-70
2022/01/25 11:14:50;;;;;;;104.60;62.67;;;;;;;2.97;76.24;103380.06;5074453;28;20484;-70
2022/01/25 11:17:16;;;;;;;90.97;57.55;;;;;;;3.04;77.64;103382.22;5075675;28;20028;-70
2022/01/25 11:19:42;;;;;;;92.25;57.58;;;;;;;3.05;76.49;103381.41;5071842;28;20363;-70
2022/01/25 11:22:11;;;;;;;88.75;55.08;;;;;;;3.06;76.14;103380.63;5053501;28;20028;-70
2022/01/25 11:24:37;;;;;;;99.70;60.67;;;;;;;3.11;76.52;103380.88;5072546;28;20035;-70
2022/01/25 11:27:05;;;;;;;93.93;56.75;;;;;;;3.12;76.20;103375.81;5055631;28;20097;-70
2022/01/25 11:29:36;;;;;;;94.30;56.83;;;;;;;3.17;76.96;103385.53;5075117;28;20058;-69
2022/01/25 11:32:07;;;;;;;97.85;57.83;;;;;;;3.17;76.87;103390.72;5065425;28;20036;-70
2022/01/25 11:34:35;;;;;;;94.40;59.50;;;;;;;3.20;76.08;103378.84;5061224;28;20023;-70
2022/01/25 11:37:04;;;;;;;106.13;58.00;;;;;;;3.26;77.23;103383.50;5090440;28;20382;-70
2022/01/25 11:39:32;;;;;;;98.60;52.83;;;;;;;3.27;76.21;103375.81;5075468;28;20034;-70
2022/01/25 11:42:03;;;;;;;105.68;60.78;;;;;;;3.35;77.75;103388.31;5086543;28;20020;-70
2022/01/25 11:44:29;;;;;;;99.65;60.58;;;;;;;3.33;76.34;103382.16;5091067;28;20388;-70
2022/01/25 11:46:58;;;;;;;95.32;57.33;;;;;;;3.32;75.31;103373.50;5075662;28;20024;-70
2022/01/25 11:49:25;;;;;;;94.32;56.03;;;;;;;3.30;74.62;103380.28;5073144;28;20384;-70
2022/01/25 11:52:08;;;;;;;101.13;64.75;;;;;;;3.38;76.63;103384.22;5072922;28;20075;-70
2022/01/25 11:54:35;;;;;;;104.55;60.33;;;;;;;3.28;73.42;103392.28;5077486;28;20043;-70
2022/01/25 11:57:10;;;;;;;96.03;58.45;;;;;;;3.27;75.15;103382.69;5086652;28;20081;-70
2022/01/25 11:59:37;;;;;;;99.65;60.28;;;;;;;3.26;74.71;103383.50;5083395;28;20487;-70
2022/01/25 12:02:02;;;;;;;96.80;56.88;;;;;;;3.25;75.55;103381.72;5065969;28;20033;-70
2022/01/25 12:04:31;;;;;;;96.78;58.35;;;;;;;3.25;75.88;103376.53;5054569;28;20507;-69
2022/01/25 12:07:08;;;;;;;94.05;58.20;;;;;;;3.25;75.45;103374.84;5074171;28;20123;-69
2022/01/25 12:09:45;;;;;;;97.28;55.35;;;;;;;3.25;74.82;103372.25;5074923;28;20028;-70
2022/01/25 12:12:14;;;;;;;94.82;54.85;;;;;;;3.24;74.86;103369.56;5085453;28;20440;-70
2022/01/25 12:14:40;;;;;;;91.50;57.22;;;;;;;3.23;76.15;103362.59;5091012;28;20122;-70
2022/01/25 12:17:06;;;;;;;100.60;62.92;;;;;;;3.23;75.76;103357.41;5090131;28;20054;-71
2022/01/25 12:19:50;;;;;;;98.95;57.13;;;;;;;3.22;74.80;103355.59;5090038;28;20472;-70
2022/01/25 12:22:42;;;;;;;98.18;58.28;;;;;;;3.21;75.67;103349.53;5077321;28;20065;-70
2022/01/25 12:25:24;;;;;;;89.68;55.97;;;;;;;3.24;75.29;103348.81;5107292;28;20537;-70
2022/01/25 12:28:05;;;;;;;96.65;57.72;;;;;;;3.25;75.39;103350.63;5078257;28;20377;-70
2022/01/25 12:30:46;;;;;;;97.80;56.47;;;;;;;3.28;75.72;103349.09;5070140;28;20036;-70
2022/01/25 12:33:28;;;;;;;88.88;55.15;;;;;;;3.29;76.04;103350.88;5036863;28;20117;-70
2022/01/25 12:36:00;;;;;;;84.50;52.53;;;;;;;3.23;74.02;103341.84;5057699;28;20119;-70
2022/01/25 12:38:38;;;;;;;90.47;53.20;;;;;;;3.18;72.97;103348.47;5083069;28;20430;-70
2022/01/25 12:41:13;;;;;;;99.00;56.30;;;;;;;3.21;75.19;103344.34;5101114;28;20028;-70
2022/01/25 12:43:44;;;;;;;87.53;54.00;;;;;;;3.21;74.89;103338.28;5092890;28;20031;-70
2022/01/25 12:46:11;;;;;;;;;;;;;;;3.26;75.04;103336.84;5091974;28;20031;-70
2022/01/25 12:48:41;;;;;;;84.90;46.92;;;;;;;3.19;74.63;103339.88;5086555;28;21077;-70
2022/01/25 12:51:10;;;;;;;87.68;53.55;;;;;;;3.16;74.50;103337.09;5085642;28;20027;-71
2022/01/25 12:53:39;;;;;;;95.72;54.55;;;;;;;3.17;74.71;103328.53;5082701;28;20048;-70
2022/01/25 12:56:15;;;;;;;98.07;55.90;;;;;;;3.15;74.38;103327.53;5085070;28;20385;-70
2022/01/25 12:58:42;;;;;;;99.30;57.35;;;;;;;3.10;74.42;103320.41;5065837;28;20085;-70
2022/01/25 13:01:11;;;;;;;90.80;55.17;;;;;;;3.10;74.26;103324.69;5065753;28;20032;-70
2022/01/25 13:03:45;;;;;;;94.47;53.53;;;;;;;3.12;75.42;103317.91;5065455;28;20024;-70
2022/01/25 13:06:25;;;;;;;94.20;54.58;;;;;;;3.17;74.67;103315.59;5068203;28;20472;-71
2022/01/25 13:11:26;;;;;;;96.55;55.85;;;;;;;3.17;73.88;103315.59;5087144;28;20020;-70
2022/01/25 13:14:16;;;;;;;90.23;56.23;;;;;;;3.14;73.37;103316.28;5063735;28;20050;-70
2022/01/25 13:16:46;;;;;;;93.68;57.95;;;;;;;3.08;72.86;103306.47;5069067;28;20357;-70